Time;durP1;ratioP1;P1;durP2;ratioP2;P2;SDS_P1;SDS_P2;PMS_P1;PMS_P2;Temp;Humidity;BMP_temperature;BMP_pressure;BME280_temperature;BME280_humidity;BME280_pressure;Samples;Min_cycle;Max_cycle;Signal;HPM_P1;HPM_P2
2021/11/27 00:00:28;;;;;;;14.40;6.38;;;7.20;95.60;;;;;;4959441;29;20038;-85
2021/11/27 00:02:54;;;;;;;13.68;6.68;;;7.20;95.70;;;;;;4949119;29;20036;-86
2021/11/27 00:05:22;;;;;;;15.93;8.27;;;7.20;95.70;;;;;;4941308;29;20036;-86
2021/11/27 00:07:48;;;;;;;13.27;6.35;;;7.20;95.80;;;;;;4937500;29;20398;-85
2021/11/27 00:10:16;;;;;;;12.77;6.75;;;7.20;95.80;;;;;;4936640;29;20039;-87
2021/11/27 00:12:43;;;;;;;12.73;6.85;;;7.20;95.90;;;;;;4935517;29;20456;-86
2021/11/27 00:15:10;;;;;;;16.10;7.93;;;7.20;96.00;;;;;;4936085;29;20071;-86
2021/11/27 00:17:37;;;;;;;12.88;6.50;;;7.20;96.00;;;;;;4934866;29;20047;-86
2021/11/27 00:20:06;;;;;;;14.20;6.50;;;7.30;96.10;;;;;;4935332;29;20035;-86
2021/11/27 00:22:32;;;;;;;12.70;6.45;;;7.30;96.10;;;;;;4935411;29;20032;-86
2021/11/27 00:24:58;;;;;;;14.38;7.28;;;7.30;96.30;;;;;;4935138;29;20066;-86
2021/11/27 00:27:24;;;;;;;17.08;5.80;;;7.30;96.50;;;;;;4937907;29;20035;-86
2021/11/27 00:29:49;;;;;;;14.20;6.32;;;7.30;96.50;;;;;;4955439;29;20039;-86
2021/11/27 00:32:15;;;;;;;16.67;7.20;;;7.30;96.80;;;;;;4955741;29;20118;-86
2021/11/27 00:34:41;;;;;;;13.00;6.07;;;7.30;96.90;;;;;;4955472;29;20391;-86
2021/11/27 00:37:07;;;;;;;14.02;7.53;;;7.30;97.00;;;;;;4955274;29;20399;-86
2021/11/27 00:39:32;;;;;;;16.98;7.18;;;7.30;97.20;;;;;;4934883;29;20453;-86
2021/11/27 00:41:58;;;;;;;13.23;6.35;;;7.30;97.30;;;;;;4935483;29;20036;-86
2021/11/27 00:44:24;;;;;;;15.38;6.53;;;7.30;97.40;;;;;;4938116;29;20537;-85
2021/11/27 00:46:51;;;;;;;11.65;6.25;;;7.30;97.40;;;;;;4935214;29;20039;-86
2021/11/27 00:49:18;;;;;;;16.60;8.48;;;7.30;97.40;;;;;;4936799;29;20038;-85
2021/11/27 00:51:44;;;;;;;12.45;6.93;;;7.30;97.70;;;;;;4934907;29;20447;-86
2021/11/27 00:54:10;;;;;;;15.50;7.75;;;7.30;97.80;;;;;;4935639;29;20043;-86
2021/11/27 00:56:36;;;;;;;15.93;8.20;;;7.30;97.70;;;;;;4935018;29;20076;-85
2021/11/27 00:59:03;;;;;;;13.43;7.13;;;7.30;98.10;;;;;;4937976;29;20077;-85
2021/11/27 01:01:31;;;;;;;17.80;7.28;;;7.30;98.10;;;;;;4941464;29;20035;-85
2021/11/27 01:03:58;;;;;;;13.50;6.50;;;7.30;98.20;;;;;;4941425;29;20036;-85
2021/11/27 01:06:25;;;;;;;12.23;5.85;;;7.40;98.40;;;;;;4941317;29;20375;-85
2021/11/27 01:08:55;;;;;;;12.52;5.70;;;7.30;98.60;;;;;;4938222;29;20046;-85
2021/11/27 01:11:32;;;;;;;12.05;6.57;;;7.30;98.30;;;;;;4941175;29;20082;-86
2021/11/27 01:14:02;;;;;;;11.90;6.95;;;7.30;99.00;;;;;;4938447;29;20450;-86
2021/11/27 01:16:31;;;;;;;11.60;6.82;;;7.40;98.70;;;;;;4959017;29;20062;-85
2021/11/27 01:18:57;;;;;;;17.67;8.30;;;7.40;98.60;;;;;;4958668;29;20086;-86
2021/11/27 01:21:26;;;;;;;12.40;6.35;;;7.40;98.80;;;;;;4958421;29;20043;-85
2021/11/27 01:23:54;;;;;;;11.95;6.45;;;7.40;98.80;;;;;;4938027;29;20036;-85
2021/11/27 01:26:20;;;;;;;9.57;6.80;;;7.40;98.70;;;;;;4940467;29;20447;-86
2021/11/27 01:28:46;;;;;;;15.18;7.40;;;7.40;98.80;;;;;;4944031;29;20039;-85
2021/11/27 01:31:12;;;;;;;14.05;7.32;;;7.30;99.00;;;;;;4964646;29;20035;-85
2021/11/27 01:33:38;;;;;;;18.98;8.27;;;7.30;99.00;;;;;;4942319;29;20035;-85
2021/11/27 01:36:05;;;;;;;15.43;6.72;;;7.30;99.10;;;;;;4939618;29;20036;-85
2021/11/27 01:38:32;;;;;;;13.98;5.47;;;7.30;99.00;;;;;;4937510;29;20040;-86
2021/11/27 01:40:58;;;;;;;17.45;7.65;;;7.20;99.20;;;;;;4954062;29;20039;-85
2021/11/27 01:43:25;;;;;;;15.55;8.07;;;7.20;99.20;;;;;;4940728;29;20074;-85
2021/11/27 01:45:51;;;;;;;14.75;6.95;;;7.20;99.40;;;;;;4958375;29;20051;-86
2021/11/27 01:48:18;;;;;;;12.20;6.20;;;7.20;99.60;;;;;;4939570;29;20455;-85
2021/11/27 01:50:54;;;;;;;21.00;8.23;;;7.20;99.70;;;;;;4937460;29;20055;-85
2021/11/27 01:53:22;;;;;;;13.90;7.80;;;7.20;99.80;;;;;;4939945;29;20039;-85
2021/11/27 01:55:50;;;;;;;18.63;10.40;;;7.20;99.70;;;;;;4937116;29;20044;-86
2021/11/27 01:58:16;;;;;;;12.13;6.60;;;7.20;99.90;;;;;;4956331;29;20031;-86
2021/11/27 02:00:44;;;;;;;16.15;8.25;;;7.20;99.90;;;;;;4937406;29;20036;-86
2021/11/27 02:03:10;;;;;;;16.02;8.30;;;7.20;99.90;;;;;;4938623;29;20503;-86
2021/11/27 02:05:36;;;;;;;12.65;5.80;;;7.20;99.90;;;;;;4937318;29;20188;-86
2021/11/27 02:08:03;;;;;;;13.32;5.60;;;7.20;99.90;;;;;;4955224;29;20055;-85
2021/11/27 02:10:29;;;;;;;12.73;6.25;;;7.20;99.90;;;;;;4937146;29;20039;-85
2021/11/27 02:12:55;;;;;;;14.20;6.95;;;7.30;99.90;;;;;;4937472;29;20072;-86
2021/11/27 02:15:21;;;;;;;13.18;7.10;;;7.20;99.90;;;;;;4957258;29;20039;-86
2021/11/27 02:17:47;;;;;;;11.73;7.20;;;7.30;99.90;;;;;;4937663;29;20040;-86
2021/11/27 02:20:13;;;;;;;13.60;6.22;;;7.30;99.90;;;;;;4938846;29;20036;-86
2021/11/27 02:22:39;;;;;;;15.50;6.95;;;7.30;99.90;;;;;;4957809;29;20356;-85
2021/11/27 02:25:10;;;;;;;12.27;7.38;;;7.30;99.90;;;;;;4937707;29;20036;-86
2021/11/27 02:27:37;;;;;;;12.32;6.53;;;7.30;99.90;;;;;;4936849;29;20491;-86
2021/11/27 02:30:05;;;;;;;11.05;6.70;;;7.30;99.90;;;;;;4936840;29;20047;-86
2021/11/27 02:32:30;;;;;;;12.70;6.18;;;7.40;99.90;;;;;;4957576;29;20042;-86
2021/11/27 02:34:56;;;;;;;11.98;6.88;;;7.40;99.90;;;;;;4957378;29;20027;-86
2021/11/27 02:37:22;;;;;;;13.70;7.93;;;7.40;99.90;;;;;;4939095;29;20043;-86
2021/11/27 02:39:48;;;;;;;13.00;7.15;;;7.40;99.90;;;;;;4936552;29;20047;-86
2021/11/27 02:42:13;;;;;;;14.38;6.57;;;7.40;99.90;;;;;;4937929;29;20467;-86
2021/11/27 02:44:40;;;;;;;10.43;6.55;;;7.40;99.90;;;;;;4938395;29;20100;-86
2021/11/27 02:47:07;;;;;;;10.27;6.38;;;7.50;99.90;;;;;;4956656;29;20042;-86
2021/11/27 02:49:33;;;;;;;10.35;5.93;;;7.50;99.90;;;;;;4939212;29;20134;-86
2021/11/27 02:51:59;;;;;;;13.38;6.85;;;7.50;99.90;;;;;;4939287;29;20036;-86
2021/11/27 02:54:26;;;;;;;10.63;5.85;;;7.50;99.90;;;;;;4940208;29;20038;-86
2021/11/27 02:56:52;;;;;;;15.27;5.93;;;7.50;99.90;;;;;;4941849;29;20039;-86
2021/11/27 02:59:21;;;;;;;10.10;6.05;;;7.60;99.90;;;;;;4943167;29;20581;-85
2021/11/27 03:01:53;;;;;;;11.32;4.63;;;7.60;99.90;;;;;;4959590;29;20067;-86
2021/11/27 03:04:18;;;;;;;9.25;4.32;;;7.60;99.90;;;;;;4961522;29;20474;-86
2021/11/27 03:06:45;;;;;;;10.77;5.07;;;7.60;99.90;;;;;;4961831;29;20039;-86
2021/11/27 03:09:16;;;;;;;7.38;4.03;;;7.70;99.90;;;;;;4941327;29;20031;-85
2021/11/27 03:11:42;;;;;;;6.38;4.57;;;7.70;99.90;;;;;;4939062;29;20775;-86
2021/11/27 03:14:08;;;;;;;9.43;5.28;;;7.70;99.90;;;;;;4956417;29;20118;-86
2021/11/27 03:16:38;;;;;;;8.43;4.03;;;7.70;99.90;;;;;;4939145;29;20077;-86
2021/11/27 03:19:04;;;;;;;7.10;3.53;;;7.80;99.90;;;;;;4939170;29;20370;-86
2021/11/27 03:21:30;;;;;;;8.13;4.03;;;7.90;99.90;;;;;;4939044;29;20041;-86
2021/11/27 03:23:56;;;;;;;7.18;3.15;;;7.90;99.90;;;;;;4956472;29;20023;-87
2021/11/27 03:26:22;;;;;;;5.72;3.55;;;7.90;99.90;;;;;;4938699;29;20126;-86
2021/11/27 03:28:47;;;;;;;5.70;3.60;;;8.00;99.90;;;;;;4938920;29;20083;-86
2021/11/27 03:31:13;;;;;;;8.52;3.97;;;8.00;99.90;;;;;;4938859;29;20094;-85
2021/11/27 03:33:39;;;;;;;6.95;2.97;;;8.00;99.90;;;;;;4938694;29;20080;-86
2021/11/27 03:36:05;;;;;;;4.35;3.00;;;8.00;99.90;;;;;;4938674;29;20043;-85
2021/11/27 03:38:31;;;;;;;4.53;2.55;;;8.10;99.90;;;;;;4938771;29;20138;-85
2021/11/27 03:40:58;;;;;;;4.05;2.53;;;8.20;99.90;;;;;;4956264;29;20438;-86
2021/11/27 03:43:23;;;;;;;3.72;2.47;;;8.20;99.90;;;;;;4938836;29;20046;-86
2021/11/27 03:45:49;;;;;;;4.60;2.45;;;8.20;99.90;;;;;;4938434;29;20122;-86
2021/11/27 03:48:24;;;;;;;3.10;2.22;;;8.20;99.90;;;;;;4955729;29;20087;-87
2021/11/27 03:50:52;;;;;;;4.07;1.95;;;8.30;99.90;;;;;;4938578;29;20110;-85
2021/11/27 03:53:22;;;;;;;4.40;2.75;;;8.30;99.90;;;;;;4938623;29;20047;-86
2021/11/27 03:55:48;;;;;;;3.47;1.83;;;8.30;99.90;;;;;;4938410;29;20051;-85
2021/11/27 03:58:14;;;;;;;2.95;2.33;;;8.30;99.90;;;;;;4938551;29;20079;-86
2021/11/27 04:00:41;;;;;;;3.38;2.05;;;8.40;99.90;;;;;;4938634;29;20130;-87
2021/11/27 04:03:08;;;;;;;2.80;1.77;;;8.40;99.90;;;;;;4938243;29;20036;-86
2021/11/27 04:05:43;;;;;;;3.70;1.80;;;8.40;99.90;;;;;;4937885;29;20035;-87
2021/11/27 04:08:08;;;;;;;7.07;2.33;;;8.40;99.90;;;;;;4938491;29;20040;-86
2021/11/27 04:10:34;;;;;;;2.88;1.48;;;8.40;99.90;;;;;;4938650;29;20055;-86
2021/11/27 04:13:00;;;;;;;2.60;1.70;;;8.40;99.90;;;;;;4938466;29;20041;-86
2021/11/27 04:15:27;;;;;;;3.35;1.83;;;8.40;99.90;;;;;;4955806;29;20037;-86
2021/11/27 04:17:53;;;;;;;3.00;1.60;;;8.40;99.90;;;;;;4955519;29;20063;-86
2021/11/27 04:20:19;;;;;;;2.53;2.28;;;8.50;99.90;;;;;;4938659;29;20031;-86
2021/11/27 04:22:45;;;;;;;4.35;1.75;;;8.50;99.90;;;;;;4942096;29;20386;-86
2021/11/27 04:25:11;;;;;;;1.90;1.27;;;8.50;99.90;;;;;;4943210;29;20489;-86
2021/11/27 04:27:37;;;;;;;1.45;1.13;;;8.50;99.90;;;;;;4947965;29;20042;-86
2021/11/27 04:30:10;;;;;;;2.25;1.50;;;8.50;99.90;;;;;;4940766;29;20039;-87
2021/11/27 04:32:36;;;;;;;2.30;1.77;;;8.50;99.90;;;;;;4956469;28;20190;-86
2021/11/27 04:35:02;;;;;;;2.08;1.25;;;8.60;99.90;;;;;;4942097;29;20118;-87
2021/11/27 04:37:28;;;;;;;1.40;1.30;;;8.50;99.90;;;;;;4942286;29;20043;-86
2021/11/27 04:39:54;;;;;;;2.67;1.35;;;8.50;99.90;;;;;;4942154;29;20493;-86
2021/11/27 04:42:20;;;;;;;1.33;1.17;;;8.50;99.90;;;;;;4941996;29;20042;-86
2021/11/27 04:44:46;;;;;;;1.85;1.60;;;8.60;99.90;;;;;;4941989;29;20055;-86
2021/11/27 04:47:12;;;;;;;1.98;1.42;;;8.60;99.90;;;;;;4959563;29;20475;-86
2021/11/27 04:49:39;;;;;;;1.88;1.33;;;8.60;99.90;;;;;;4941975;29;20054;-86
2021/11/27 04:52:05;;;;;;;1.92;1.63;;;8.60;99.90;;;;;;4959576;29;20039;-86
2021/11/27 04:54:30;;;;;;;3.70;2.20;;;8.60;99.90;;;;;;4942110;29;20032;-86
2021/11/27 04:56:56;;;;;;;1.00;1.00;;;8.60;99.90;;;;;;4958964;29;20035;-86
2021/11/27 04:59:22;;;;;;;1.83;1.58;;;8.60;99.90;;;;;;4959312;29;20506;-85
2021/11/27 05:01:49;;;;;;;2.03;1.77;;;8.60;99.90;;;;;;4941747;29;20043;-86
2021/11/27 05:04:16;;;;;;;3.10;2.17;;;8.70;99.90;;;;;;4959028;29;20034;-86
2021/11/27 05:06:41;;;;;;;3.17;2.03;;;8.70;99.90;;;;;;4941658;29;20043;-86
2021/11/27 05:09:07;;;;;;;5.38;3.10;;;8.70;99.90;;;;;;4941501;29;20035;-87
2021/11/27 05:11:33;;;;;;;3.83;2.63;;;8.70;99.90;;;;;;4941309;29;20032;-86
2021/11/27 05:13:59;;;;;;;5.30;3.28;;;8.80;99.90;;;;;;4941438;29;20038;-86
2021/11/27 05:16:26;;;;;;;4.40;3.13;;;8.80;99.90;;;;;;4941402;29;20046;-87
2021/11/27 05:18:53;;;;;;;5.07;3.35;;;8.80;99.90;;;;;;4958731;29;20114;-86
2021/11/27 05:21:18;;;;;;;4.85;3.63;;;8.90;99.90;;;;;;4958492;29;20100;-86
2021/11/27 05:23:44;;;;;;;6.00;3.45;;;8.90;99.90;;;;;;4941321;29;20035;-86
2021/11/27 05:26:10;;;;;;;3.47;2.60;;;8.90;99.90;;;;;;4941246;29;20035;-86
2021/11/27 05:28:36;;;;;;;4.13;2.83;;;8.90;99.90;;;;;;4941026;29;20035;-86
2021/11/27 05:31:02;;;;;;;9.07;3.78;;;9.00;99.90;;;;;;4940827;29;20035;-86
2021/11/27 05:36:16;;;;;;;5.85;3.00;;;9.00;99.90;;;;;;4958405;29;20046;-86
2021/11/27 05:38:45;;;;;;;4.30;3.05;;;9.00;99.90;;;;;;4941056;29;20042;-85
2021/11/27 05:41:12;;;;;;;6.63;2.78;;;9.10;99.90;;;;;;4940960;29;20031;-86
2021/11/27 05:43:38;;;;;;;5.43;2.65;;;9.10;99.90;;;;;;4940891;29;20039;-86
2021/11/27 05:46:03;;;;;;;4.78;2.72;;;9.10;99.90;;;;;;4940772;29;20398;-86
2021/11/27 05:48:29;;;;;;;5.05;2.83;;;9.10;99.90;;;;;;4942391;29;20439;-86
2021/11/27 05:50:55;;;;;;;15.80;4.53;;;9.20;99.90;;;;;;4946794;29;20479;-86
2021/11/27 05:53:21;;;;;;;18.17;5.03;;;9.20;99.90;;;;;;4944050;29;20035;-86
2021/11/27 05:55:48;;;;;;;10.82;4.97;;;9.20;99.90;;;;;;4959327;29;20074;-86
2021/11/27 05:58:15;;;;;;;10.00;5.88;;;9.30;99.90;;;;;;4942688;29;20043;-85
2021/11/27 06:00:41;;;;;;;9.23;4.65;;;9.30;99.90;;;;;;4941077;29;20094;-87
2021/11/27 06:03:07;;;;;;;25.98;8.60;;;9.30;99.90;;;;;;4940438;29;20174;-86
2021/11/27 06:05:36;;;;;;;22.60;8.95;;;9.40;99.90;;;;;;4941374;29;20078;-86
2021/11/27 06:08:02;;;;;;;29.30;10.80;;;9.40;99.90;;;;;;4941354;29;20094;-86
2021/11/27 06:10:28;;;;;;;30.23;9.10;;;9.40;99.90;;;;;;4940846;29;20039;-86
2021/11/27 06:12:54;;;;;;;23.77;9.77;;;9.40;99.90;;;;;;4957139;29;20534;-86
2021/11/27 06:15:20;;;;;;;20.85;7.75;;;9.50;99.90;;;;;;4940100;29;20131;-85
2021/11/27 06:17:46;;;;;;;19.02;6.97;;;9.50;99.90;;;;;;4957312;29;20039;-87
2021/11/27 06:20:12;;;;;;;20.00;7.20;;;9.50;99.90;;;;;;4939839;29;20499;-86
2021/11/27 06:22:38;;;;;;;22.45;7.60;;;9.50;99.90;;;;;;4939681;29;20049;-86
2021/11/27 06:25:04;;;;;;;23.17;10.15;;;9.50;99.90;;;;;;4939676;29;20122;-86
2021/11/27 06:27:31;;;;;;;24.23;11.25;;;9.50;99.90;;;;;;4939328;29;20042;-87
2021/11/27 06:29:57;;;;;;;31.20;13.07;;;9.60;99.90;;;;;;4939982;29;20041;-86
2021/11/27 06:32:23;;;;;;;27.27;13.02;;;9.60;99.90;;;;;;4939678;29;20043;-86
2021/11/27 06:34:53;;;;;;;30.13;10.85;;;9.60;99.90;;;;;;4939517;29;20551;-86
2021/11/27 06:37:21;;;;;;;21.35;8.68;;;9.60;99.90;;;;;;4939494;29;20039;-86
2021/11/27 06:39:49;;;;;;;21.58;8.65;;;9.70;99.90;;;;;;4956715;29;20042;-87
2021/11/27 06:42:16;;;;;;;22.70;9.38;;;9.60;99.90;;;;;;4940085;29;20035;-86
2021/11/27 06:44:47;;;;;;;22.38;10.13;;;9.70;99.90;;;;;;4939295;29;20055;-87
2021/11/27 06:47:16;;;;;;;28.85;12.35;;;9.70;99.90;;;;;;4957155;29;20043;-86
2021/11/27 06:49:44;;;;;;;40.40;14.25;;;9.70;99.90;;;;;;4939652;29;20066;-85
2021/11/27 06:52:11;;;;;;;35.15;14.43;;;9.80;99.90;;;;;;4939480;29;20038;-86
2021/11/27 06:54:37;;;;;;;30.08;13.35;;;9.80;99.90;;;;;;4939305;28;20416;-85
2021/11/27 06:57:03;;;;;;;48.03;14.88;;;9.90;99.90;;;;;;4938586;29;20122;-86
2021/11/27 06:59:29;;;;;;;43.58;15.27;;;9.90;99.90;;;;;;4939411;29;20039;-86
2021/11/27 07:01:55;;;;;;;39.92;15.68;;;9.90;99.90;;;;;;4939171;29;20062;-86
2021/11/27 07:04:22;;;;;;;39.50;15.25;;;10.00;99.90;;;;;;4939115;29;20042;-86
2021/11/27 07:06:49;;;;;;;35.33;14.50;;;10.00;99.90;;;;;;4956376;29;20035;-87
2021/11/27 07:09:15;;;;;;;34.75;12.45;;;10.10;99.90;;;;;;4938762;29;20062;-87
2021/11/27 07:11:41;;;;;;;19.08;10.90;;;10.10;99.90;;;;;;4939005;29;20036;-87
2021/11/27 07:14:08;;;;;;;48.40;18.50;;;10.20;99.90;;;;;;4939157;29;20043;-87
2021/11/27 07:16:34;;;;;;;35.25;12.40;;;10.30;99.90;;;;;;4941588;29;20039;-86
2021/11/27 07:19:00;;;;;;;29.52;11.40;;;10.30;99.90;;;;;;4946946;29;20094;-86
2021/11/27 07:21:26;;;;;;;21.88;8.25;;;10.30;99.90;;;;;;4946718;29;20395;-87
2021/11/27 07:23:51;;;;;;;15.20;8.93;;;10.30;99.90;;;;;;4941938;29;20038;-86
2021/11/27 07:26:18;;;;;;;19.88;7.80;;;10.30;99.90;;;;;;4939735;29;20039;-86
2021/11/27 07:28:44;;;;;;;22.80;8.43;;;10.40;99.90;;;;;;4941942;29;20057;-86
2021/11/27 07:31:11;;;;;;;12.70;6.07;;;10.40;99.90;;;;;;4956164;29;20042;-86
2021/11/27 07:33:37;;;;;;;19.48;8.13;;;10.40;99.90;;;;;;4955693;29;20509;-86
2021/11/27 07:36:04;;;;;;;18.67;8.18;;;10.40;99.90;;;;;;4955497;29;20035;-86
2021/11/27 07:38:30;;;;;;;13.10;7.50;;;10.50;99.90;;;;;;4938849;29;20035;-86
2021/11/27 07:40:57;;;;;;;19.85;8.85;;;10.60;99.90;;;;;;4938354;29;20103;-86
2021/11/27 07:43:23;;;;;;;28.60;11.98;;;10.60;99.90;;;;;;4938431;29;20047;-86
2021/11/27 07:45:50;;;;;;;43.47;16.20;;;10.70;99.90;;;;;;4938144;29;20129;-86
2021/11/27 07:48:16;;;;;;;40.53;17.92;;;10.70;99.90;;;;;;4938612;29;20041;-86
2021/11/27 07:50:42;;;;;;;36.42;16.70;;;10.70;99.90;;;;;;4939099;29;20047;-86
2021/11/27 07:53:07;;;;;;;45.80;17.13;;;10.70;99.90;;;;;;4955788;29;20459;-86
2021/11/27 07:55:33;;;;;;;36.25;13.00;;;10.80;99.90;;;;;;4939113;29;20131;-86
2021/11/27 07:57:59;;;;;;;35.40;13.68;;;10.80;99.90;;;;;;4939006;29;20043;-86
2021/11/27 08:00:25;;;;;;;25.15;9.90;;;10.80;99.90;;;;;;4938308;29;20042;-86
2021/11/27 08:02:51;;;;;;;17.52;8.13;;;10.80;99.90;;;;;;4938260;29;20039;-86
2021/11/27 08:05:17;;;;;;;18.88;9.50;;;10.90;99.90;;;;;;4938336;29;20217;-86
2021/11/27 08:07:43;;;;;;;13.73;5.35;;;10.90;99.90;;;;;;4939651;29;20047;-86
2021/11/27 08:10:11;;;;;;;11.50;5.57;;;11.00;99.90;;;;;;4959420;29;20035;-86
2021/11/27 08:12:37;;;;;;;11.32;6.15;;;11.00;99.90;;;;;;4959390;29;20146;-86
2021/11/27 08:15:04;;;;;;;13.63;5.38;;;11.00;99.90;;;;;;4942063;29;20047;-86
2021/11/27 08:17:30;;;;;;;7.57;4.90;;;11.10;99.90;;;;;;4942608;29;20043;-87
2021/11/27 08:19:56;;;;;;;8.23;5.32;;;11.10;99.90;;;;;;4942283;29;20039;-86
2021/11/27 08:22:22;;;;;;;8.27;5.53;;;11.10;99.90;;;;;;4942669;29;20043;-86
2021/11/27 08:24:49;;;;;;;7.90;4.95;;;11.10;99.90;;;;;;4959106;29;20042;-86
2021/11/27 08:27:15;;;;;;;7.78;4.53;;;11.10;99.90;;;;;;4941799;29;20067;-86
2021/11/27 08:29:41;;;;;;;4.28;3.35;;;11.10;99.90;;;;;;4959332;29;20075;-87
2021/11/27 08:32:07;;;;;;;6.43;3.78;;;11.20;99.90;;;;;;4959319;29;20058;-86
2021/11/27 08:34:33;;;;;;;6.97;4.72;;;11.20;99.90;;;;;;4941935;29;20031;-86
2021/11/27 08:36:59;;;;;;;7.75;5.32;;;11.20;99.90;;;;;;4941097;29;20106;-85
2021/11/27 08:39:25;;;;;;;5.57;4.35;;;11.30;99.90;;;;;;4941391;29;20043;-87
2021/11/27 08:41:50;;;;;;;5.32;3.60;;;11.30;99.90;;;;;;4941645;29;20035;-86
2021/11/27 08:44:16;;;;;;;6.15;3.92;;;11.30;99.90;;;;;;4942081;29;20044;-85
2021/11/27 08:46:42;;;;;;;6.47;3.83;;;11.40;99.90;;;;;;4942927;29;20059;-84
2021/11/27 08:49:09;;;;;;;5.32;3.90;;;11.50;99.90;;;;;;4943646;29;20133;-84
2021/11/27 08:51:40;;;;;;;6.65;3.67;;;11.50;99.90;;;;;;4946836;29;20398;-85
2021/11/27 08:54:07;;;;;;;7.15;4.03;;;11.60;99.90;;;;;;4937562;29;20455;-87
2021/11/27 08:56:33;;;;;;;6.20;4.07;;;11.70;99.90;;;;;;4938879;29;20046;-87
2021/11/27 08:58:59;;;;;;;6.93;4.57;;;11.70;99.90;;;;;;4939518;29;20074;-85
2021/11/27 09:01:25;;;;;;;8.70;4.88;;;11.80;99.90;;;;;;4941192;29;20067;-86
2021/11/27 09:03:51;;;;;;;5.78;4.20;;;11.80;99.90;;;;;;4937949;29;20036;-86
2021/11/27 09:06:17;;;;;;;6.57;4.43;;;11.90;99.90;;;;;;4957212;29;20035;-86
2021/11/27 09:08:44;;;;;;;4.78;3.42;;;11.90;99.90;;;;;;4937868;29;20439;-87
2021/11/27 09:11:13;;;;;;;9.45;5.30;;;12.00;99.90;;;;;;4939234;29;20042;-87
2021/11/27 09:13:40;;;;;;;7.70;5.15;;;12.10;99.90;;;;;;4938422;29;20038;-89
2021/11/27 09:16:07;;;;;;;5.75;3.80;;;12.10;99.90;;;;;;4938595;29;20102;-89
2021/11/27 09:18:33;;;;;;;6.72;4.60;;;12.20;99.90;;;;;;4938523;29;20062;-90
2021/11/27 09:21:00;;;;;;;5.25;4.07;;;12.20;99.90;;;;;;4938837;29;20471;-88
2021/11/27 09:23:26;;;;;;;6.97;4.53;;;12.20;99.90;;;;;;4938062;29;20043;-87
2021/11/27 09:25:52;;;;;;;6.10;4.28;;;12.20;99.90;;;;;;4938355;29;20475;-88
2021/11/27 09:28:18;;;;;;;10.57;3.55;;;12.30;99.90;;;;;;4939441;29;20035;-88
2021/11/27 09:30:44;;;;;;;7.90;4.78;;;12.30;99.90;;;;;;4937594;29;20032;-87
2021/11/27 09:33:10;;;;;;;6.93;4.43;;;12.40;99.90;;;;;;4941190;29;20031;-87
2021/11/27 09:35:36;;;;;;;6.55;4.65;;;12.40;99.90;;;;;;4942883;29;20031;-87
2021/11/27 09:38:06;;;;;;;8.55;4.38;;;12.50;99.90;;;;;;4943489;29;20502;-88
2021/11/27 09:40:38;;;;;;;6.03;3.35;;;12.50;99.90;;;;;;4948067;28;20039;-87
2021/11/27 09:43:06;;;;;;;6.20;5.05;;;12.50;99.90;;;;;;4967098;28;20106;-88
2021/11/27 09:45:33;;;;;;;5.43;3.40;;;12.60;99.90;;;;;;4935425;29;20089;-88
2021/11/27 09:48:04;;;;;;;6.53;4.95;;;12.60;99.90;;;;;;4951583;29;20039;-86
2021/11/27 09:50:31;;;;;;;5.50;3.60;;;12.60;99.90;;;;;;4951154;29;20515;-88
2021/11/27 09:52:59;;;;;;;8.05;4.55;;;12.60;99.90;;;;;;4951315;29;20042;-87
2021/11/27 09:55:25;;;;;;;6.55;4.72;;;12.60;99.90;;;;;;4946148;29;20055;-87
2021/11/27 09:57:51;;;;;;;7.28;4.47;;;12.60;99.90;;;;;;4949257;29;20088;-87
2021/11/27 10:00:20;;;;;;;6.38;3.70;;;12.60;99.90;;;;;;4953112;28;20182;-89
2021/11/27 10:02:54;;;;;;;7.22;4.63;;;12.70;99.90;;;;;;4937197;29;20172;-86
2021/11/27 10:05:22;;;;;;;7.00;4.63;;;12.80;99.90;;;;;;4956734;28;20032;-87
2021/11/27 10:07:48;;;;;;;5.30;3.95;;;12.80;99.90;;;;;;4957842;29;20126;-88
2021/11/27 10:10:15;;;;;;;5.88;4.10;;;12.90;99.90;;;;;;4948270;29;20091;-87
2021/11/27 10:12:42;;;;;;;7.50;4.03;;;13.00;99.90;;;;;;4931781;29;20031;-86
2021/11/27 10:15:10;;;;;;;8.93;5.28;;;13.10;99.90;;;;;;4950037;28;20047;-87
2021/11/27 10:17:37;;;;;;;5.82;4.72;;;13.10;99.90;;;;;;4954181;29;20448;-86
2021/11/27 10:20:05;;;;;;;9.27;5.32;;;13.10;99.90;;;;;;4961555;28;20059;-88
2021/11/27 10:22:51;;;;;;;6.35;4.80;;;13.30;99.90;;;;;;4935574;29;20405;-88
2021/11/27 10:25:34;;;;;;;6.03;4.80;;;13.30;99.90;;;;;;4942411;28;20074;-86
2021/11/27 10:28:15;;;;;;;6.10;4.82;;;13.30;99.90;;;;;;4939201;29;20039;-87
2021/11/27 10:30:43;;;;;;;6.25;4.40;;;13.30;99.90;;;;;;4932349;29;20035;-89
2021/11/27 10:33:09;;;;;;;5.72;4.07;;;13.30;99.90;;;;;;4947521;28;20035;-87
2021/11/27 10:35:47;;;;;;;9.50;5.10;;;13.30;99.90;;;;;;4961143;28;20043;-87
2021/11/27 10:38:13;;;;;;;7.97;5.68;;;13.40;99.90;;;;;;4945864;28;20524;-86
2021/11/27 10:40:39;;;;;;;8.52;5.25;;;13.50;99.90;;;;;;4944905;29;20490;-85
2021/11/27 10:43:08;;;;;;;7.63;4.40;;;13.60;99.90;;;;;;4926748;28;20040;-86
2021/11/27 10:45:40;;;;;;;8.85;5.00;;;13.70;99.90;;;;;;4949236;29;20127;-88
2021/11/27 10:48:21;;;;;;;7.70;5.43;;;13.80;99.70;;;;;;4944036;28;20899;-90
2021/11/27 10:50:58;;;;;;;7.10;4.75;;;13.80;99.20;;;;;;4976917;28;20039;-89
2021/11/27 10:53:36;;;;;;;7.75;5.18;;;13.80;99.30;;;;;;4968940;28;20035;-89
2021/11/27 10:56:07;;;;;;;7.30;5.45;;;13.80;99.20;;;;;;4947318;29;20039;-90
2021/11/27 10:58:59;;;;;;;7.43;4.80;;;13.90;98.90;;;;;;4953370;28;20062;-87
2021/11/27 11:01:25;;;;;;;7.38;5.25;;;13.90;98.90;;;;;;4944104;28;20031;-89
2021/11/27 11:03:54;;;;;;;6.72;5.50;;;13.90;98.90;;;;;;4926469;29;20391;-90
2021/11/27 11:06:23;;;;;;;7.90;4.95;;;14.00;98.90;;;;;;4951446;28;20474;-89
2021/11/27 11:08:51;;;;;;;7.70;5.05;;;14.00;98.40;;;;;;4942680;29;20491;-89
2021/11/27 11:11:23;;;;;;;8.73;4.65;;;14.00;98.10;;;;;;4927088;29;20425;-90
2021/11/27 11:13:55;;;;;;;7.97;6.13;;;13.90;98.00;;;;;;4940511;29;20051;-88
2021/11/27 11:16:53;;;;;;;7.03;5.05;;;13.80;97.90;;;;;;4946078;29;20051;-89
2021/11/27 11:19:20;;;;;;;6.50;5.05;;;13.70;97.50;;;;;;4966115;28;20071;-89
2021/11/27 11:22:16;;;;;;;6.15;4.65;;;13.60;97.80;;;;;;4925954;29;20068;-89
2021/11/27 11:24:45;;;;;;;7.43;4.95;;;13.60;97.90;;;;;;4938670;29;20146;-88
2021/11/27 11:27:12;;;;;;;7.80;5.13;;;13.50;97.90;;;;;;4973555;28;20039;-86
2021/11/27 11:29:50;;;;;;;5.13;4.00;;;13.50;98.00;;;;;;4972491;28;20066;-86
2021/11/27 11:32:21;;;;;;;8.35;4.65;;;13.40;98.10;;;;;;4954600;28;20082;-88
2021/11/27 11:34:48;;;;;;;7.70;5.35;;;13.40;98.20;;;;;;4954529;28;20026;-88
2021/11/27 11:37:14;;;;;;;7.20;4.32;;;13.40;98.20;;;;;;4941949;29;20078;-88
2021/11/27 11:39:40;;;;;;;8.23;4.50;;;13.30;98.20;;;;;;4935498;29;20066;-89
2021/11/27 11:42:07;;;;;;;5.88;4.20;;;13.30;98.30;;;;;;4928484;29;20039;-89
2021/11/27 11:44:35;;;;;;;7.72;5.25;;;13.30;98.40;;;;;;4934345;29;20066;-86
2021/11/27 11:47:02;;;;;;;7.38;4.78;;;13.30;98.40;;;;;;4940402;28;20046;-86
2021/11/27 11:49:28;;;;;;;6.47;4.63;;;13.30;98.50;;;;;;4959334;28;20039;-87
2021/11/27 11:52:22;;;;;;;7.20;4.53;;;13.30;98.60;;;;;;4974079;28;20098;-87
2021/11/27 11:54:51;;;;;;;8.65;4.43;;;13.30;98.40;;;;;;4949039;29;20039;-87
2021/11/27 11:57:17;;;;;;;7.97;5.60;;;13.30;98.40;;;;;;4931421;28;20138;-89
2021/11/27 11:59:49;;;;;;;6.78;5.22;;;13.30;98.30;;;;;;4942181;29;20474;-89
2021/11/27 12:02:27;;;;;;;6.03;4.28;;;13.30;98.40;;;;;;4931980;28;20035;-87
2021/11/27 12:05:09;;;;;;;8.10;5.53;;;13.20;98.30;;;;;;4918521;29;20105;-87
2021/11/27 12:10:39;;;;;;;6.20;4.30;;;13.20;98.20;;;;;;4961375;28;20073;-90
2021/11/27 12:13:08;;;;;;;13.57;4.30;;;13.20;98.30;;;;;;4952743;28;20363;-89
2021/11/27 12:16:10;;;;;;;5.68;4.55;;;13.20;98.30;;;;;;4958038;28;20031;-90
2021/11/27 12:18:56;;;;;;;7.05;4.50;;;13.30;98.30;;;;;;4934481;29;20059;-89
2021/11/27 12:21:22;;;;;;;8.00;4.85;;;13.30;98.10;;;;;;4938751;29;20497;-88
2021/11/27 12:23:51;;;;;;;6.25;4.97;;;13.30;98.10;;;;;;4930442;29;20517;-87
2021/11/27 12:26:20;;;;;;;9.80;4.20;;;13.30;98.10;;;;;;4938191;28;20471;-88
2021/11/27 12:28:49;;;;;;;7.22;3.97;;;13.30;98.00;;;;;;4946522;29;20113;-88
2021/11/27 12:31:42;;;;;;;5.75;4.95;;;13.30;98.00;;;;;;4948230;28;20115;-89
2021/11/27 12:34:29;;;;;;;5.45;3.83;;;13.30;98.10;;;;;;4931507;28;20524;-87
2021/11/27 12:36:56;;;;;;;6.68;4.38;;;13.30;98.10;;;;;;4951563;28;20115;-85
2021/11/27 12:39:22;;;;;;;6.57;4.63;;;13.30;98.00;;;;;;4957045;28;20114;-86
2021/11/27 12:41:50;;;;;;;8.60;4.72;;;13.30;98.00;;;;;;4957887;28;20089;-85
2021/11/27 12:44:45;;;;;;;6.05;4.63;;;13.20;97.90;;;;;;4941685;28;20487;-87
2021/11/27 12:47:16;;;;;;;6.85;4.25;;;13.20;97.80;;;;;;4945499;28;20067;-86
2021/11/27 12:50:04;;;;;;;7.97;4.88;;;13.10;97.80;;;;;;4965548;28;20439;-88
2021/11/27 12:52:41;;;;;;;6.30;4.28;;;13.00;97.80;;;;;;4945155;28;20123;-87
2021/11/27 12:55:10;;;;;;;6.22;4.10;;;12.90;97.80;;;;;;4947250;28;20037;-87
2021/11/27 12:57:41;;;;;;;6.60;4.18;;;12.80;97.90;;;;;;4945370;28;20047;-86